createdAt,value
2017-08-09T06:04:48.755Z,84.70
2017-08-09T06:07:40.260Z,84.30
2017-08-09T06:10:10.658Z,83.60
2017-08-09T06:18:57.687Z,83.70
2017-08-09T06:24:42.328Z,82.80
2017-08-09T06:27:13.446Z,82.00
2017-08-09T07:31:58.634Z,77.20
2017-08-09T07:34:31.954Z,77.00
2017-08-09T07:40:01.136Z,76.40
2017-08-09T07:42:34.787Z,74.10
2017-08-09T07:45:05.575Z,75.30
2017-08-09T08:26:39.187Z,76.00
2017-08-09T08:44:24.752Z,74.00
2017-08-09T08:52:44.982Z,71.30
2017-08-09T08:55:16.968Z,72.20
2017-08-09T08:57:47.403Z,71.80
2017-08-09T09:00:19.164Z,71.90
2017-08-09T09:02:48.683Z,72.10
2017-08-09T09:05:22.188Z,71.40
2017-08-09T09:07:53.239Z,71.60
2017-08-09T09:10:37.190Z,72.10
2017-08-09T09:13:06.646Z,72.40
2017-08-09T09:15:35.636Z,72.50
2017-08-09T09:18:04.608Z,72.20
2017-08-09T09:20:34.130Z,68.40
2017-08-09T09:23:04.733Z,69.40
2017-08-09T09:25:33.683Z,68.80
2017-08-09T09:28:03.306Z,68.10
2017-08-09T09:30:32.308Z,68.50
2017-08-09T09:33:01.251Z,70.50
2017-08-09T09:35:30.238Z,71.20
2017-08-09T09:37:59.185Z,68.90
2017-08-09T09:40:28.148Z,69.00
2017-08-09T09:42:57.613Z,67.70
2017-08-09T09:45:26.604Z,67.70
2017-08-09T09:47:55.577Z,68.00
2017-08-09T09:50:24.567Z,67.00
2017-08-09T09:52:53.529Z,64.50
2017-08-09T09:55:22.498Z,64.40
2017-08-09T09:57:51.462Z,64.20
2017-08-09T10:00:20.415Z,64.60
2017-08-09T10:02:49.392Z,63.80
2017-08-09T10:05:18.334Z,66.30
2017-08-09T10:07:47.344Z,66.40
2017-08-09T10:10:16.298Z,66.70
2017-08-09T10:12:45.252Z,66.40
2017-08-09T10:15:14.223Z,66.50
2017-08-09T10:17:43.180Z,66.00
2017-08-09T10:20:12.173Z,66.40
2017-08-09T10:22:41.117Z,66.80
2017-08-09T10:25:10.093Z,63.80
2017-08-09T10:27:39.057Z,61.40
2017-08-09T10:30:08.077Z,61.30
2017-08-09T10:32:37.073Z,62.40
2017-08-09T10:35:06.054Z,62.80
2017-08-09T10:40:14.936Z,59.20
2017-08-09T10:42:56.076Z,60.10
2017-08-09T10:45:27.269Z,60.70
2017-08-09T10:47:56.257Z,59.70
2017-08-09T10:50:25.230Z,59.70
2017-08-09T10:52:54.203Z,58.30
2017-08-09T10:55:23.144Z,56.80
2017-08-09T10:57:52.130Z,56.70
2017-08-09T11:00:21.084Z,55.50
2017-08-09T11:02:50.064Z,56.90
2017-08-09T11:05:19.020Z,54.80
2017-08-09T11:07:47.998Z,55.50
2017-08-09T11:10:17.031Z,56.80
2017-08-09T11:12:46.026Z,56.20
2017-08-09T11:15:14.969Z,55.70
2017-08-09T11:17:43.929Z,56.50
2017-08-09T11:20:12.902Z,56.50
2017-08-09T11:22:41.876Z,55.60
2017-08-09T11:25:10.867Z,54.80
2017-08-09T11:27:39.843Z,54.40
2017-08-09T11:30:08.852Z,52.50
2017-08-09T11:32:37.821Z,53.50
2017-08-09T11:35:06.829Z,55.20
2017-08-09T11:37:35.800Z,52.60
2017-08-09T11:40:04.779Z,52.80
2017-08-09T11:42:33.733Z,53.10
2017-08-09T11:45:02.764Z,52.00
2017-08-09T11:47:32.471Z,54.70
2017-08-09T11:50:01.429Z,50.40
2017-08-09T11:52:31.202Z,50.70
2017-08-09T11:55:00.177Z,53.10
2017-08-09T11:57:29.259Z,52.50
2017-08-09T11:59:58.245Z,50.50
2017-08-09T12:02:27.202Z,50.90
2017-08-09T12:04:56.148Z,50.90
2017-08-09T12:07:25.124Z,49.80
2017-08-09T12:09:54.112Z,49.00
2017-08-09T12:12:23.089Z,49.80
2017-08-09T12:14:52.083Z,47.20
2017-08-09T12:17:21.076Z,46.20
2017-08-09T12:19:50.035Z,47.30
2017-08-09T12:22:19.034Z,48.60
2017-08-09T12:24:48.009Z,46.50
2017-08-09T12:27:16.982Z,45.90
2017-08-09T12:29:45.970Z,46.90
2017-08-09T12:32:14.919Z,44.20
2017-08-09T12:34:43.903Z,43.30
2017-08-09T12:37:12.848Z,43.50
2017-08-09T12:39:41.824Z,42.40
2017-08-09T12:42:10.810Z,42.70
2017-08-09T12:44:39.812Z,43.40
2017-08-09T12:47:08.760Z,44.80
2017-08-09T12:49:38.579Z,43.50
2017-08-09T12:52:07.512Z,42.00
2017-08-09T12:54:36.464Z,40.20
2017-08-09T12:57:05.445Z,38.50
2017-08-09T12:59:34.400Z,38.40
2017-08-09T13:02:03.396Z,40.00
2017-08-09T13:04:32.358Z,40.70
2017-08-09T13:07:01.311Z,37.50
2017-08-09T13:09:30.304Z,38.50
2017-08-09T13:11:59.257Z,40.90
2017-08-09T13:14:28.280Z,41.60
2017-08-09T13:16:57.248Z,40.70
2017-08-09T13:19:26.281Z,39.20
2017-08-09T13:21:55.252Z,42.40
2017-08-09T13:24:24.180Z,45.20
2017-08-09T13:26:53.181Z,43.30
2017-08-09T13:29:22.114Z,43.40
2017-08-09T13:31:51.075Z,41.50
2017-08-09T13:34:20.060Z,40.50
2017-08-09T13:36:49.787Z,40.30
2017-08-09T13:39:18.940Z,40.30
2017-08-09T13:41:47.887Z,40.10
2017-08-09T13:44:16.831Z,38.80
2017-08-09T13:46:45.805Z,41.40
2017-08-09T13:49:14.772Z,40.70
2017-08-09T13:51:43.728Z,41.40
2017-08-09T13:54:12.707Z,39.10
2017-08-09T13:56:41.672Z,40.00
2017-08-09T13:59:10.648Z,39.40
2017-08-09T14:01:39.641Z,38.50
2017-08-09T14:04:08.642Z,40.40
2017-08-09T14:06:37.576Z,42.50
2017-08-09T14:09:06.576Z,44.20
2017-08-09T14:11:35.523Z,39.90
2017-08-09T14:14:04.478Z,40.60
2017-08-09T14:16:33.438Z,42.00
2017-08-09T14:19:02.451Z,40.90
2017-08-09T14:21:31.409Z,39.10
2017-08-09T14:24:01.058Z,36.10
2017-08-09T14:26:30.010Z,37.00
2017-08-09T14:28:59.000Z,38.60
2017-08-09T14:31:27.956Z,35.80
2017-08-09T14:33:56.935Z,34.70
2017-08-09T14:36:25.894Z,34.40
2017-08-09T14:38:54.877Z,33.50
2017-08-09T14:41:23.817Z,33.40
2017-08-09T14:43:52.785Z,34.10
2017-08-09T14:46:21.814Z,38.00
2017-08-09T14:48:51.620Z,38.50
2017-08-09T14:51:21.435Z,40.00
2017-08-09T14:53:50.377Z,40.50
2017-08-09T14:56:19.345Z,40.90
2017-08-09T14:58:48.290Z,40.50
2017-08-09T15:01:17.259Z,42.20
2017-08-09T15:03:46.197Z,42.10
2017-08-09T15:06:15.181Z,43.20
2017-08-09T15:08:44.131Z,43.40
2017-08-09T15:11:13.166Z,42.10
2017-08-09T15:13:42.108Z,42.80
2017-08-09T15:16:11.076Z,42.90
2017-08-09T15:18:40.028Z,43.20
2017-08-09T15:21:09.053Z,43.00
2017-08-09T15:23:38.015Z,43.70
2017-08-09T15:26:06.967Z,44.60
2017-08-09T15:28:35.944Z,44.10
2017-08-09T15:31:04.969Z,42.10
2017-08-09T15:33:34.795Z,42.50
2017-08-09T15:36:03.779Z,42.70
2017-08-09T15:38:32.769Z,43.90
2017-08-09T15:41:01.707Z,45.80
2017-08-09T15:43:30.641Z,45.30
2017-08-09T15:45:59.612Z,45.80
2017-08-09T15:48:28.652Z,46.50
2017-08-09T15:50:57.616Z,46.80
2017-08-09T15:53:26.630Z,46.40
2017-08-09T15:55:55.581Z,46.20
2017-08-09T15:58:24.527Z,45.40
2017-08-09T16:00:53.542Z,46.20
2017-08-09T16:03:22.499Z,45.20
2017-08-09T16:05:51.469Z,44.80
2017-08-09T16:08:20.422Z,45.90
2017-08-09T16:10:49.543Z,45.70
2017-08-09T16:13:18.660Z,44.60
2017-08-09T16:15:47.608Z,45.10
2017-08-09T16:18:16.582Z,46.30
2017-08-09T16:20:46.316Z,46.60
2017-08-09T16:23:15.265Z,46.20
2017-08-09T16:25:44.248Z,44.90
2017-08-09T16:28:13.198Z,44.70
2017-08-09T16:30:42.155Z,44.80
2017-08-09T16:33:11.116Z,44.50
2017-08-09T16:35:40.089Z,45.60
2017-08-09T16:38:09.050Z,46.00
2017-08-09T16:40:38.029Z,45.50
2017-08-09T16:43:06.992Z,46.40
2017-08-09T16:45:35.956Z,46.30
2017-08-09T16:48:04.937Z,45.60
2017-08-09T16:50:33.914Z,43.30
2017-08-09T16:53:02.896Z,43.70
2017-08-09T16:55:31.836Z,44.10
2017-08-09T16:58:00.805Z,43.80
2017-08-09T17:00:29.775Z,44.80
2017-08-09T17:02:58.744Z,45.20
2017-08-09T17:05:27.699Z,45.20
2017-08-09T17:07:56.694Z,46.50
2017-08-09T17:10:25.634Z,43.60
2017-08-09T17:12:54.613Z,45.40
2017-08-09T17:15:23.551Z,43.30
2017-08-09T17:17:52.502Z,43.40
2017-08-09T17:20:21.496Z,43.80
2017-08-09T17:22:50.461Z,44.20
2017-08-09T17:25:19.450Z,44.80
2017-08-09T17:27:48.424Z,45.80
2017-08-09T17:30:17.487Z,46.50
2017-08-09T17:32:46.469Z,46.20
2017-08-09T17:35:15.422Z,46.50
2017-08-09T17:37:44.403Z,46.70
2017-08-09T17:40:13.376Z,47.30
2017-08-09T17:42:42.357Z,47.60
2017-08-09T17:45:11.321Z,48.60
2017-08-09T17:47:40.307Z,48.60
2017-08-09T17:50:09.281Z,48.90
2017-08-09T17:52:38.231Z,47.70
2017-08-09T17:55:07.353Z,48.40
2017-08-09T17:57:36.407Z,48.40
2017-08-09T18:00:05.443Z,47.60
2017-08-09T18:02:34.470Z,48.20
2017-08-09T18:05:03.425Z,48.20
2017-08-09T18:07:32.429Z,46.40
2017-08-09T18:10:01.368Z,46.70
2017-08-09T18:12:30.344Z,45.20
2017-08-09T18:14:59.308Z,46.70
2017-08-09T18:17:28.278Z,48.40
2017-08-09T18:19:57.250Z,48.50
2017-08-09T18:22:26.304Z,50.40
2017-08-09T18:24:55.266Z,48.70
2017-08-09T18:27:24.623Z,51.80
2017-08-09T18:29:53.580Z,53.20
2017-08-09T18:32:22.552Z,53.60
2017-08-09T18:34:51.550Z,54.10
2017-08-09T18:37:20.530Z,54.90
2017-08-09T18:39:49.497Z,56.70
2017-08-09T18:42:18.485Z,58.00
2017-08-09T18:44:47.452Z,58.30
2017-08-09T18:47:16.403Z,58.80
2017-08-09T18:49:45.382Z,59.10
2017-08-09T18:52:14.354Z,59.20
2017-08-09T18:54:43.430Z,60.50
2017-08-09T18:57:12.427Z,61.10
2017-08-09T18:59:41.373Z,61.90
2017-08-09T19:02:10.326Z,62.60
2017-08-09T19:04:39.333Z,63.30
2017-08-09T19:07:08.333Z,63.50
2017-08-09T19:09:37.292Z,63.50
2017-08-09T19:12:06.265Z,63.80
2017-08-09T19:14:35.256Z,64.30
2017-08-09T19:17:04.252Z,64.30
2017-08-09T19:19:33.615Z,64.90
2017-08-09T19:22:02.566Z,65.30
2017-08-09T19:24:31.547Z,65.70
2017-08-09T19:27:00.876Z,65.80
2017-08-09T19:29:30.667Z,66.00
2017-08-09T19:31:59.656Z,66.70
2017-08-09T19:34:28.668Z,67.10
2017-08-09T19:36:57.645Z,67.90
2017-08-09T19:39:26.611Z,68.10
2017-08-09T19:41:55.591Z,67.70
2017-08-09T19:44:25.006Z,67.70
2017-08-09T19:46:53.959Z,68.00
2017-08-09T19:49:22.945Z,68.20
2017-08-09T19:51:51.943Z,68.70
2017-08-09T19:54:21.697Z,68.70
2017-08-09T19:56:50.701Z,68.30
2017-08-09T19:59:19.685Z,69.30
2017-08-09T20:01:48.690Z,69.40
2017-08-09T20:04:17.661Z,69.30
2017-08-09T20:06:46.654Z,69.80
2017-08-09T20:09:15.605Z,70.20
2017-08-09T20:11:44.559Z,70.60
2017-08-09T20:14:13.542Z,71.30
2017-08-09T20:16:42.557Z,70.80
2017-08-09T20:19:11.520Z,71.00
2017-08-09T20:21:40.526Z,70.50
2017-08-09T20:24:09.511Z,70.80
2017-08-09T20:26:38.480Z,70.90
2017-08-09T20:29:07.470Z,71.20
2017-08-09T20:31:36.895Z,71.20
2017-08-09T20:34:05.838Z,71.80
2017-08-09T20:36:34.847Z,71.50
2017-08-09T20:39:03.811Z,70.70
2017-08-09T20:41:32.813Z,70.40
2017-08-09T20:44:01.748Z,71.10
2017-08-09T20:46:31.550Z,70.10
2017-08-09T20:49:00.495Z,69.40
2017-08-09T20:51:29.454Z,69.60
2017-08-09T20:53:58.424Z,69.80
2017-08-09T20:56:27.421Z,69.60
2017-08-09T20:58:56.401Z,68.80
2017-08-09T21:01:25.381Z,69.40
2017-08-09T21:03:54.329Z,69.80
2017-08-09T21:06:23.286Z,70.60
2017-08-09T21:08:52.253Z,71.40
2017-08-09T21:11:21.979Z,71.20
2017-08-09T21:13:51.030Z,71.30
2017-08-09T21:16:20.673Z,71.40
2017-08-09T21:18:49.639Z,71.30
2017-08-09T21:21:19.920Z,72.10
2017-08-09T21:23:49.323Z,72.20
2017-08-09T21:26:19.219Z,72.60
2017-08-09T21:28:49.841Z,72.50
2017-08-09T21:31:20.527Z,72.70
2017-08-09T21:33:51.919Z,72.60
2017-08-09T21:36:21.496Z,72.90
2017-08-09T21:38:50.501Z,72.60
2017-08-09T21:41:19.845Z,73.10
2017-08-09T21:43:48.785Z,73.20
2017-08-09T21:46:17.860Z,73.90
2017-08-09T21:48:46.836Z,73.00
2017-08-09T21:51:15.863Z,73.30
2017-08-09T21:53:44.832Z,73.20
2017-08-09T21:56:13.814Z,73.70
2017-08-09T21:58:42.806Z,73.60
2017-08-09T22:04:34.109Z,72.70
2017-08-09T22:07:03.235Z,73.40
2017-08-09T22:12:10.030Z,73.70
2017-08-09T23:11:55.696Z,75.20
